createdAt,value
2022-09-22T00:01:50.874Z,98085.59
2022-09-22T00:04:16.873Z,98096.13
2022-09-22T00:06:43.535Z,98098.75
2022-09-22T00:09:10.446Z,98093.97
2022-09-22T00:11:36.484Z,98083.13
2022-09-22T00:14:03.095Z,98087.47
2022-09-22T00:16:29.081Z,98088.81
2022-09-22T00:18:55.081Z,98083.69
2022-09-22T00:21:21.919Z,98088.47
2022-09-22T00:23:47.883Z,98077.13
2022-09-22T00:26:13.862Z,98079.31
2022-09-22T00:28:40.627Z,98072.75
2022-09-22T00:31:06.667Z,98068.47
2022-09-22T00:33:32.681Z,98078.03
2022-09-22T00:35:58.624Z,98075.91
2022-09-22T00:38:25.309Z,98074.75
2022-09-22T00:40:51.274Z,98067.66
2022-09-22T00:43:17.256Z,98070.00
2022-09-22T00:45:43.957Z,98070.97
2022-09-22T00:48:09.917Z,98069.00
2022-09-22T00:50:36.115Z,98071.28
2022-09-22T00:53:02.129Z,98075.06
2022-09-22T00:55:28.075Z,98070.28
2022-09-22T00:57:54.907Z,98061.59
2022-09-22T01:00:20.877Z,98062.94
2022-09-22T01:02:46.892Z,98068.84
2022-09-22T01:05:13.502Z,98069.00
2022-09-22T01:07:39.460Z,98070.16
2022-09-22T01:10:05.428Z,98067.34
2022-09-22T01:12:31.365Z,98058.16
2022-09-22T01:14:57.356Z,98065.88
2022-09-22T01:17:24.121Z,98056.69
2022-09-22T01:19:50.613Z,98053.59
2022-09-22T01:22:17.506Z,98053.91
2022-09-22T01:24:43.447Z,98045.38
2022-09-22T01:27:09.390Z,98044.88
2022-09-22T01:29:35.358Z,98054.22
2022-09-22T01:32:02.096Z,98041.28
2022-09-22T01:34:28.039Z,98038.81
2022-09-22T01:36:54.176Z,98042.75
2022-09-22T01:39:20.147Z,98049.97
2022-09-22T01:41:46.810Z,98041.28
2022-09-22T01:44:12.775Z,98035.38
2022-09-22T01:46:39.552Z,98025.34
2022-09-22T01:49:06.454Z,98037.81
2022-09-22T01:51:33.982Z,98036.19
2022-09-22T01:54:00.430Z,98025.84
2022-09-22T01:56:26.809Z,98035.03
2022-09-22T01:58:54.420Z,98030.78
2022-09-22T02:01:20.730Z,98035.88
2022-09-22T02:03:47.023Z,98021.94
2022-09-22T02:06:14.336Z,98023.75
2022-09-22T02:08:40.636Z,98029.16
2022-09-22T02:11:06.716Z,98028.13
2022-09-22T04:11:32.782Z,97983.34
2022-09-22T04:13:59.493Z,97974.69
2022-09-22T04:16:25.519Z,97989.13
2022-09-22T04:18:52.188Z,97994.19
2022-09-22T04:21:18.160Z,97994.53
2022-09-22T04:23:44.149Z,97984.84
2022-09-22T04:26:10.130Z,97987.63
2022-09-22T04:28:36.988Z,97994.19
2022-09-22T04:31:02.991Z,98000.56
2022-09-22T04:33:28.950Z,97999.56
2022-09-22T04:35:55.818Z,97998.91
2022-09-22T04:38:21.770Z,97996.81
2022-09-22T04:40:48.733Z,97995.84
2022-09-22T04:43:14.724Z,97993.53
2022-09-22T04:45:41.978Z,97997.16
2022-09-22T04:48:07.991Z,97998.44
2022-09-22T04:50:33.918Z,97998.78
2022-09-22T04:52:59.874Z,97994.69
2022-09-22T04:55:25.814Z,97991.41
2022-09-22T04:57:51.810Z,97992.88
2022-09-22T05:00:17.738Z,98001.06
2022-09-22T05:02:44.164Z,98005.50
2022-09-22T05:05:10.995Z,98006.00
2022-09-22T05:07:36.931Z,98004.53
2022-09-22T05:10:02.926Z,98004.72
2022-09-22T05:12:28.885Z,98007.34
2022-09-22T05:14:54.855Z,98001.41
2022-09-22T05:17:21.935Z,98009.75
2022-09-22T05:19:47.861Z,98012.88
2022-09-22T05:22:14.485Z,98008.31
2022-09-22T05:24:40.457Z,98007.97
2022-09-22T05:27:06.386Z,98018.47
2022-09-22T05:29:33.193Z,98012.22
2022-09-22T05:31:59.220Z,98008.59
2022-09-22T05:34:25.186Z,97997.59
2022-09-22T05:36:51.168Z,97998.41
2022-09-22T05:39:17.962Z,97996.38
2022-09-22T05:41:43.911Z,97992.41
2022-09-22T05:44:09.885Z,97998.97
2022-09-22T05:46:35.831Z,97995.66
2022-09-22T05:49:01.805Z,98005.84
2022-09-22T05:51:27.768Z,98008.31
2022-09-22T05:53:53.722Z,97999.22
2022-09-22T05:59:04.215Z,97991.31
2022-09-22T06:01:30.231Z,97993.38
2022-09-22T06:03:56.187Z,97997.91
2022-09-22T06:06:22.966Z,97994.81
2022-09-22T06:08:49.343Z,97991.53
2022-09-22T06:11:15.348Z,97993.00
2022-09-22T06:13:41.311Z,97992.56
2022-09-22T06:16:08.038Z,98005.81
2022-09-22T06:18:33.999Z,97996.91
2022-09-22T06:20:59.970Z,97997.66
2022-09-22T06:23:25.912Z,97999.84
2022-09-22T06:25:51.903Z,97994.63
2022-09-22T06:28:17.858Z,98001.84
2022-09-22T06:30:44.575Z,97998.28
2022-09-22T06:33:10.550Z,98005.03
2022-09-22T06:35:36.480Z,97993.47
2022-09-22T06:38:02.950Z,98003.38
2022-09-22T06:40:29.003Z,97997.81
2022-09-22T06:42:55.062Z,97995.16
2022-09-22T06:45:21.747Z,97991.47
2022-09-22T06:47:47.922Z,97989.34
2022-09-22T06:50:14.324Z,97989.44
2022-09-22T06:52:40.580Z,97992.34
2022-09-22T06:55:06.790Z,97985.69
2022-09-22T06:57:34.447Z,97982.38
2022-09-22T07:00:00.735Z,97988.81
2022-09-22T07:02:26.958Z,97988.53
2022-09-22T07:04:54.885Z,97986.72
2022-09-22T09:08:13.530Z,97953.03
2022-09-22T09:10:40.432Z,97955.94
2022-09-22T09:13:06.372Z,97954.06
2022-09-22T09:15:32.393Z,97955.91
2022-09-22T09:17:58.357Z,97955.88
2022-09-22T09:20:24.811Z,97962.31
2022-09-22T09:22:51.160Z,97945.13
2022-09-22T09:25:25.466Z,97952.59
2022-09-22T09:27:53.382Z,97943.88
2022-09-22T09:30:19.335Z,97946.84
2022-09-22T09:32:46.152Z,97948.19
2022-09-22T09:35:12.099Z,97945.50
2022-09-22T09:37:38.051Z,97946.06
2022-09-22T09:40:04.105Z,97945.63
2022-09-22T09:42:30.893Z,97945.91
2022-09-22T09:44:56.854Z,97948.22
2022-09-22T09:47:23.591Z,97938.16
2022-09-22T09:49:52.862Z,97944.59
2022-09-22T09:52:18.968Z,97943.34
2022-09-22T09:54:44.938Z,97937.19
2022-09-22T09:57:11.636Z,97938.34
2022-09-22T09:59:37.619Z,97939.06
2022-09-22T10:02:03.617Z,97935.00
2022-09-22T10:04:29.537Z,97943.41
2022-09-22T10:07:01.399Z,97944.31
2022-09-22T10:09:27.674Z,97942.47
2022-09-22T10:11:53.598Z,97937.75
2022-09-22T10:14:20.453Z,97942.22
2022-09-22T10:16:46.387Z,97940.03
2022-09-22T10:19:13.324Z,97943.72
2022-09-22T10:21:39.287Z,97941.28
2022-09-22T10:24:05.382Z,97940.44
2022-09-22T10:26:31.401Z,97938.59
2022-09-22T10:28:58.198Z,97942.44
2022-09-22T10:31:24.411Z,97938.16
2022-09-22T10:33:50.409Z,97935.63
2022-09-22T10:36:17.177Z,97942.25
2022-09-22T10:38:43.420Z,97939.44
2022-09-22T10:41:09.572Z,97939.91
2022-09-22T10:43:36.436Z,97937.13
2022-09-22T10:46:02.386Z,97933.31
2022-09-22T10:48:28.376Z,97928.53
2022-09-22T10:50:54.331Z,97924.28
2022-09-22T10:53:20.326Z,97919.72
2022-09-22T10:55:46.291Z,97921.69
2022-09-22T10:58:13.107Z,97921.53
2022-09-22T11:00:39.516Z,97934.13
2022-09-22T11:03:05.703Z,97928.19
2022-09-22T11:05:31.689Z,97917.66
2022-09-22T11:07:58.582Z,97917.66
2022-09-22T11:10:24.518Z,97918.28
2022-09-22T11:12:50.508Z,97925.13
2022-09-22T11:15:17.130Z,97918.50
2022-09-22T11:17:45.488Z,97922.78
2022-09-22T11:20:11.689Z,97923.19
2022-09-22T11:22:38.416Z,97916.06
2022-09-22T11:25:05.404Z,97919.94
2022-09-22T11:27:31.327Z,97917.50
2022-09-22T11:29:57.298Z,97909.75
2022-09-22T11:32:23.267Z,97907.19
2022-09-22T11:34:49.464Z,97904.50
2022-09-22T11:37:17.087Z,97908.59
2022-09-22T11:39:43.364Z,97901.28
2022-09-22T11:42:09.328Z,97891.97
2022-09-22T11:44:35.333Z,97896.91
2022-09-22T11:47:01.595Z,97898.16
2022-09-22T11:49:27.887Z,97882.78
2022-09-22T11:51:54.195Z,97881.63
2022-09-22T11:54:20.256Z,97895.44
2022-09-22T11:56:47.248Z,97886.13
2022-09-22T11:59:13.366Z,97875.91
2022-09-22T12:01:39.762Z,97878.53
2022-09-22T14:05:00.664Z,97848.56
2022-09-22T14:07:26.618Z,97853.44
2022-09-22T14:09:52.551Z,97849.25
2022-09-22T14:12:19.417Z,97846.84
2022-09-22T14:14:45.377Z,97839.59
2022-09-22T14:17:12.210Z,97838.19
2022-09-22T14:19:38.144Z,97840.97
2022-09-22T14:22:04.115Z,97844.44
2022-09-22T14:24:30.082Z,97839.69
2022-09-22T14:27:00.235Z,97840.75
2022-09-22T14:29:29.579Z,97844.97
2022-09-22T14:31:55.579Z,97845.06
2022-09-22T14:34:22.364Z,97840.09
2022-09-22T14:36:48.672Z,97837.31
2022-09-22T14:39:15.163Z,97837.34
2022-09-22T14:41:41.591Z,97825.19
2022-09-22T14:44:07.544Z,97832.56
2022-09-22T14:46:34.559Z,97823.66
2022-09-22T14:49:00.522Z,97831.84
2022-09-22T14:51:27.237Z,97820.47
2022-09-22T14:53:53.824Z,97821.50
2022-09-22T14:56:20.001Z,97821.41
2022-09-22T14:58:45.933Z,97817.16
2022-09-22T15:01:11.942Z,97828.91
2022-09-22T15:03:37.910Z,97816.59
2022-09-22T15:06:03.875Z,97815.38
2022-09-22T15:08:29.629Z,97811.66
2022-09-22T15:10:55.599Z,97815.13
2022-09-22T15:13:21.540Z,97808.94
2022-09-22T15:15:47.539Z,97807.28
2022-09-22T15:18:14.171Z,97814.13
2022-09-22T15:20:40.119Z,97811.03
2022-09-22T15:23:06.071Z,97809.53
2022-09-22T15:25:32.922Z,97802.84
2022-09-22T15:27:58.862Z,97813.56
2022-09-22T15:30:25.761Z,97816.84
2022-09-22T15:32:51.717Z,97810.63
2022-09-22T15:35:17.699Z,97810.59
2022-09-22T15:37:44.413Z,97808.97
2022-09-22T15:40:10.378Z,97809.78
2022-09-22T15:42:36.559Z,97811.66
2022-09-22T15:45:02.572Z,97816.59
2022-09-22T15:47:28.558Z,97808.88
2022-09-22T15:49:55.290Z,97815.41
2022-09-22T15:52:21.256Z,97803.13
2022-09-22T15:54:48.512Z,97809.97
2022-09-22T15:57:14.547Z,97816.63
2022-09-22T15:59:40.492Z,97817.31
2022-09-22T16:02:06.483Z,97815.78
2022-09-22T16:04:32.489Z,97821.88
2022-09-22T16:06:58.971Z,97819.50
2022-09-22T16:09:26.171Z,97826.81
2022-09-22T16:11:52.392Z,97827.31
2022-09-22T16:14:18.376Z,97831.38
2022-09-22T16:16:44.327Z,97827.88
2022-09-22T16:19:11.375Z,97837.75
2022-09-22T16:21:37.356Z,97833.59
2022-09-22T16:24:05.010Z,97837.75
2022-09-22T16:26:31.061Z,97839.16
2022-09-22T16:28:57.727Z,97840.25
2022-09-22T16:31:23.749Z,97840.44
2022-09-22T16:33:49.748Z,97847.41
2022-09-22T16:36:16.632Z,97853.25
2022-09-22T16:38:42.612Z,97845.25
2022-09-22T16:41:08.890Z,97856.13
2022-09-22T16:43:35.292Z,97854.50
2022-09-22T16:46:01.575Z,97852.66
2022-09-22T16:48:28.006Z,97846.00
2022-09-22T16:50:54.264Z,97860.06
2022-09-22T16:53:20.543Z,97853.47
2022-09-22T16:55:48.256Z,97865.59
2022-09-22T19:00:15.440Z,97966.59
2022-09-22T19:02:41.517Z,97970.84
2022-09-22T19:05:07.539Z,97976.78
2022-09-22T19:07:36.653Z,97979.81
2022-09-22T19:10:07.053Z,97975.28
2022-09-22T19:12:33.038Z,97982.28
2022-09-22T19:14:58.979Z,97980.94
2022-09-22T19:17:24.936Z,97980.19
2022-09-22T19:19:51.011Z,97978.97
2022-09-22T19:22:16.960Z,97987.38
2022-09-22T19:24:42.987Z,97978.47
2022-09-22T19:27:11.770Z,97980.88
2022-09-22T19:29:38.022Z,97984.97
2022-09-22T19:32:04.132Z,98000.56
2022-09-22T19:34:30.095Z,97993.03
2022-09-22T19:36:56.037Z,97996.78
2022-09-22T19:39:22.819Z,97996.53
2022-09-22T19:41:48.767Z,97993.50
2022-09-22T19:44:14.964Z,97992.53
2022-09-22T19:46:41.744Z,97987.63
2022-09-22T19:49:07.985Z,97979.88
2022-09-22T19:51:33.948Z,97992.94
2022-09-22T19:54:00.580Z,97984.81
2022-09-22T19:56:26.566Z,97991.00
2022-09-22T19:58:52.521Z,97996.88
2022-09-22T20:01:19.482Z,97995.47
2022-09-22T20:03:45.482Z,97999.69
2022-09-22T20:06:11.419Z,98007.09
2022-09-22T20:08:37.377Z,97997.50
2022-09-22T20:11:23.010Z,98006.97
2022-09-22T20:13:51.601Z,97996.78
2022-09-22T20:16:17.596Z,97999.81
2022-09-22T20:18:43.621Z,97998.25
2022-09-22T20:21:10.554Z,98004.03
2022-09-22T20:23:36.538Z,98007.75
2022-09-22T20:26:02.496Z,98000.91
2022-09-22T20:28:28.482Z,97998.25
2022-09-22T20:30:54.467Z,98000.09
2022-09-22T20:33:20.487Z,98003.34
2022-09-22T20:35:46.414Z,98001.59
2022-09-22T20:38:13.390Z,98005.91
2022-09-22T20:40:39.474Z,98001.06
2022-09-22T20:43:05.454Z,98001.38
2022-09-22T20:45:32.306Z,98000.25
2022-09-22T20:47:58.620Z,97998.78
2022-09-22T20:50:25.021Z,97999.81
2022-09-22T20:52:50.956Z,98002.34
2022-09-22T20:55:17.830Z,98007.25
2022-09-22T20:57:43.801Z,98006.81
2022-09-22T21:00:09.760Z,97999.81
2022-09-22T21:02:36.643Z,98001.13
2022-09-22T21:05:02.669Z,98005.47
2022-09-22T21:07:29.043Z,98012.66
2022-09-22T21:09:54.974Z,98015.66
2022-09-22T21:12:21.810Z,98007.66
2022-09-22T21:14:47.785Z,98010.13
2022-09-22T21:17:13.928Z,98004.13
2022-09-22T21:19:40.904Z,98008.22
2022-09-22T21:22:06.899Z,98015.50
2022-09-22T21:24:32.822Z,98011.38
2022-09-22T21:26:58.804Z,98014.47
2022-09-22T21:29:24.742Z,98015.00
2022-09-22T21:31:51.110Z,98014.75
2022-09-22T21:34:18.665Z,98010.38
2022-09-22T21:36:45.711Z,98006.03
2022-09-22T21:39:12.007Z,98007.28
2022-09-22T21:41:38.308Z,98006.09
2022-09-22T21:44:06.178Z,98005.75
2022-09-22T21:46:32.457Z,98010.09
2022-09-22T21:48:58.892Z,98004.97
2022-09-22T23:59:11.253Z,97947.53
